createdAt,value
2023-06-29T00:00:30.026Z,68.00
2023-06-29T00:01:02.208Z,68.00
2023-06-29T00:01:34.672Z,68.00
2023-06-29T00:02:06.640Z,68.00
2023-06-29T00:02:38.609Z,67.90
2023-06-29T00:03:12.708Z,68.00
2023-06-29T00:03:44.651Z,67.90
2023-06-29T00:04:22.058Z,68.10
2023-06-29T00:04:57.016Z,68.00
2023-06-29T00:05:28.883Z,67.90
2023-06-29T00:06:02.589Z,67.30
2023-06-29T00:06:37.458Z,68.00
2023-06-29T00:07:09.498Z,68.00
2023-06-29T00:07:41.821Z,68.10
2023-06-29T00:08:13.635Z,67.90
2023-06-29T00:08:48.207Z,67.30
2023-06-29T00:09:20.644Z,68.00
2023-06-29T00:09:55.944Z,67.40
2023-06-29T00:10:29.937Z,67.90
2023-06-29T00:11:03.985Z,68.10
2023-06-29T00:11:37.653Z,67.90
2023-06-29T00:12:09.656Z,68.00
2023-06-29T00:12:44.377Z,68.00
2023-06-29T00:13:16.234Z,67.80
2023-06-29T00:13:48.063Z,68.30
2023-06-29T00:14:19.950Z,68.10
2023-06-29T00:14:51.808Z,68.00
2023-06-29T00:15:23.643Z,68.00
2023-06-29T00:15:55.445Z,67.30
2023-06-29T00:16:27.362Z,67.30
2023-06-29T00:16:59.162Z,66.00
2023-06-29T00:17:31.019Z,67.30
2023-06-29T00:18:02.935Z,68.10
2023-06-29T00:18:36.113Z,67.40
2023-06-29T00:19:08.630Z,67.40
2023-06-29T00:19:40.532Z,68.40
2023-06-29T00:20:12.639Z,68.10
2023-06-29T00:20:44.564Z,68.20
2023-06-29T00:21:17.667Z,67.40
2023-06-29T00:21:49.564Z,67.50
2023-06-29T00:22:21.431Z,67.40
2023-06-29T00:22:53.245Z,67.50
2023-06-29T00:23:28.250Z,68.10
2023-06-29T00:24:00.258Z,68.00
2023-06-29T00:24:32.082Z,68.10
2023-06-29T00:25:04.039Z,68.20
2023-06-29T00:25:36.646Z,67.40
2023-06-29T00:26:08.541Z,67.40
2023-06-29T00:26:40.370Z,68.10
2023-06-29T00:27:13.825Z,68.10
2023-06-29T00:27:45.679Z,68.00
2023-06-29T00:28:17.638Z,68.20
2023-06-29T00:28:49.527Z,68.20
2023-06-29T00:29:21.735Z,68.20
2023-06-29T00:29:53.693Z,68.20
2023-06-29T00:30:25.526Z,68.10
2023-06-29T00:30:57.924Z,67.40
2023-06-29T00:31:33.070Z,68.40
2023-06-29T00:32:05.314Z,67.40
2023-06-29T00:32:37.250Z,68.00
2023-06-29T00:33:09.439Z,68.30
2023-06-29T00:33:41.296Z,68.10
2023-06-29T00:34:13.080Z,68.10
2023-06-29T00:34:45.565Z,67.50
2023-06-29T00:35:17.423Z,68.00
2023-06-29T00:35:49.183Z,68.30
2023-06-29T00:36:21.032Z,68.30
2023-06-29T00:36:52.872Z,67.50
2023-06-29T00:37:24.672Z,68.30
2023-06-29T00:37:57.142Z,68.10
2023-06-29T00:38:29.132Z,68.30
2023-06-29T00:39:01.498Z,68.20
2023-06-29T00:39:35.152Z,68.20
2023-06-29T00:40:07.945Z,68.10
2023-06-29T00:40:40.922Z,68.20
2023-06-29T00:41:12.744Z,67.70
2023-06-29T00:41:44.600Z,67.80
2023-06-29T00:42:16.499Z,68.40
2023-06-29T00:42:49.931Z,67.80
2023-06-29T00:43:21.850Z,67.70
2023-06-29T00:43:53.654Z,68.30
2023-06-29T00:44:25.626Z,68.40
2023-06-29T00:44:58.435Z,68.40
2023-06-29T00:45:30.362Z,67.80
2023-06-29T00:46:08.601Z,67.80
2023-06-29T00:46:40.500Z,67.70
2023-06-29T00:47:12.462Z,68.40
2023-06-29T00:47:44.930Z,68.40
2023-06-29T00:48:17.208Z,68.30
2023-06-29T00:48:49.106Z,68.30
2023-06-29T00:49:21.270Z,68.40
2023-06-29T00:49:53.185Z,68.30
2023-06-29T00:50:25.616Z,68.40
2023-06-29T00:50:57.462Z,68.50
2023-06-29T00:51:31.907Z,68.50
2023-06-29T00:52:03.947Z,68.30
2023-06-29T00:52:37.431Z,67.80
2023-06-29T00:53:09.502Z,68.60
2023-06-29T00:53:41.662Z,68.40
2023-06-29T00:54:13.474Z,68.40
2023-06-29T00:54:45.586Z,68.40
2023-06-29T00:55:17.609Z,68.40
2023-06-29T00:55:49.976Z,67.80
2023-06-29T00:56:22.278Z,68.50
2023-06-29T00:56:54.253Z,68.50
2023-06-29T00:57:26.305Z,68.40
2023-06-29T00:57:58.184Z,68.40
2023-06-29T00:58:30.641Z,68.50
2023-06-29T00:59:02.727Z,68.50
2023-06-29T00:59:36.938Z,68.70
2023-06-29T01:00:11.698Z,68.70
2023-06-29T01:00:43.978Z,68.60
2023-06-29T01:01:16.031Z,68.90
2023-06-29T01:01:48.005Z,68.70
2023-06-29T01:02:20.284Z,68.70
2023-06-29T01:02:52.302Z,68.70
2023-06-29T01:03:24.651Z,68.70
2023-06-29T01:03:59.064Z,68.60
2023-06-29T01:04:34.579Z,68.90
2023-06-29T01:05:06.627Z,68.90
2023-06-29T01:05:38.400Z,69.10
2023-06-29T01:06:17.131Z,69.30
2023-06-29T01:07:08.007Z,69.20
2023-06-29T01:07:55.119Z,69.30
2023-06-29T01:08:34.340Z,69.30
2023-06-29T01:09:06.872Z,69.70
2023-06-29T01:09:39.144Z,69.80
2023-06-29T01:10:13.299Z,69.30
2023-06-29T01:10:47.294Z,69.50
2023-06-29T01:11:21.370Z,70.70
2023-06-29T01:11:54.487Z,69.40
2023-06-29T01:12:27.663Z,69.60
2023-06-29T01:13:02.887Z,69.60
2023-06-29T01:13:37.830Z,69.70
2023-06-29T01:14:12.837Z,69.80
2023-06-29T01:14:46.732Z,69.60
2023-06-29T01:15:20.322Z,69.60
2023-06-29T01:15:53.152Z,69.60
2023-06-29T01:16:25.520Z,70.00
2023-06-29T01:16:59.217Z,69.70
2023-06-29T01:17:33.992Z,69.90
2023-06-29T01:18:07.392Z,69.90
2023-06-29T01:18:40.801Z,70.10
2023-06-29T01:19:21.567Z,69.90
2023-06-29T01:19:54.340Z,69.90
2023-06-29T01:20:27.509Z,70.10
2023-06-29T01:21:00.462Z,69.90
2023-06-29T01:21:36.414Z,69.90
2023-06-29T01:22:21.892Z,69.70
2023-06-29T01:23:08.094Z,69.70
2023-06-29T01:23:41.268Z,70.00
2023-06-29T01:24:15.629Z,70.10
2023-06-29T01:24:48.682Z,69.80
2023-06-29T01:25:21.613Z,69.90
2023-06-29T01:25:56.382Z,69.70
2023-06-29T01:26:32.132Z,69.70
2023-06-29T01:27:05.072Z,69.40
2023-06-29T01:27:38.630Z,69.70
2023-06-29T01:28:10.900Z,69.70
2023-06-29T01:28:42.686Z,69.70
2023-06-29T01:29:25.700Z,70.00
2023-06-29T01:30:02.071Z,69.90
2023-06-29T01:30:33.976Z,70.00
2023-06-29T01:31:06.559Z,69.90
2023-06-29T01:31:38.493Z,69.70
2023-06-29T01:32:11.253Z,69.80
2023-06-29T01:32:43.327Z,69.90
2023-06-29T01:33:16.701Z,70.00
2023-06-29T01:33:48.552Z,70.00
2023-06-29T01:34:22.120Z,70.10
2023-06-29T01:34:54.045Z,69.80
2023-06-29T01:35:26.200Z,69.90
2023-06-29T01:36:07.812Z,69.90
2023-06-29T01:36:49.775Z,69.80
2023-06-29T01:37:27.177Z,70.10
2023-06-29T01:38:06.027Z,70.00
2023-06-29T01:38:48.817Z,70.00
2023-06-29T01:39:24.831Z,69.80
2023-06-29T01:40:07.695Z,69.90
2023-06-29T01:40:45.337Z,70.20
2023-06-29T01:41:17.937Z,70.00
2023-06-29T01:41:51.687Z,70.00
2023-06-29T01:42:25.684Z,70.00
2023-06-29T01:42:57.872Z,70.00
2023-06-29T01:43:30.977Z,69.30
2023-06-29T01:44:07.124Z,70.10
2023-06-29T01:44:40.289Z,70.00
2023-06-29T01:45:13.394Z,69.90
2023-06-29T01:45:47.210Z,70.50
2023-06-29T01:46:22.600Z,70.20
2023-06-29T01:46:56.978Z,70.10
2023-06-29T01:47:30.499Z,70.40
2023-06-29T01:48:02.975Z,70.50
2023-06-29T01:48:37.468Z,70.00
2023-06-29T01:49:09.779Z,69.90
2023-06-29T01:49:41.659Z,70.50
2023-06-29T01:50:17.354Z,69.60
2023-06-29T01:50:50.033Z,70.00
2023-06-29T01:51:22.321Z,70.10
2023-06-29T01:51:54.197Z,69.50
2023-06-29T01:52:26.478Z,70.20
2023-06-29T01:52:59.602Z,70.10
2023-06-29T01:53:32.992Z,70.50
2023-06-29T01:54:08.721Z,70.30
2023-06-29T01:54:40.570Z,70.20
2023-06-29T01:55:13.070Z,69.70
2023-06-29T01:55:45.316Z,70.50
2023-06-29T01:56:17.354Z,69.60
2023-06-29T01:56:49.231Z,70.30
2023-06-29T01:57:21.205Z,69.50
2023-06-29T01:57:53.085Z,70.60
2023-06-29T01:58:25.032Z,69.80
2023-06-29T01:58:56.978Z,70.40
2023-06-29T01:59:30.874Z,69.80
2023-06-29T02:00:04.815Z,70.60
2023-06-29T02:00:45.653Z,70.40
2023-06-29T02:01:18.068Z,70.40
2023-06-29T02:01:50.114Z,70.90
2023-06-29T02:02:22.158Z,70.60
2023-06-29T02:02:54.220Z,70.60
2023-06-29T02:03:26.169Z,70.70
2023-06-29T02:03:58.125Z,70.80
2023-06-29T02:04:30.052Z,69.90
2023-06-29T02:05:01.897Z,69.80
2023-06-29T02:05:33.749Z,69.70
2023-06-29T02:06:06.710Z,70.60
2023-06-29T02:06:38.528Z,69.70
2023-06-29T02:07:10.410Z,70.50
2023-06-29T02:07:42.184Z,69.80
2023-06-29T02:08:14.102Z,70.40
2023-06-29T02:08:46.273Z,70.70
2023-06-29T02:09:18.134Z,69.80
2023-06-29T02:09:49.949Z,69.80
2023-06-29T02:10:21.944Z,70.60
2023-06-29T02:10:53.845Z,70.70
2023-06-29T02:11:25.662Z,69.80
2023-06-29T02:11:57.950Z,69.70
2023-06-29T02:12:31.053Z,70.30
2023-06-29T02:13:02.871Z,70.40
2023-06-29T02:13:34.671Z,70.30
2023-06-29T02:14:06.538Z,70.30
2023-06-29T02:14:38.366Z,70.10
2023-06-29T02:15:11.292Z,69.60
2023-06-29T02:15:43.467Z,70.30
2023-06-29T02:16:15.781Z,70.40
2023-06-29T02:16:50.647Z,69.60
2023-06-29T02:17:22.568Z,70.60
2023-06-29T02:17:54.786Z,70.50
2023-06-29T02:18:26.696Z,71.00
2023-06-29T02:18:58.506Z,70.30
2023-06-29T02:19:30.364Z,70.50
2023-06-29T02:20:02.194Z,70.40
2023-06-29T02:20:34.019Z,69.80
2023-06-29T02:21:05.877Z,70.60
2023-06-29T02:21:37.666Z,70.40
2023-06-29T02:22:10.160Z,69.50
2023-06-29T02:22:41.993Z,70.60
2023-06-29T02:23:13.871Z,70.40
2023-06-29T02:23:45.650Z,69.60
2023-06-29T02:24:17.442Z,69.80
2023-06-29T02:24:49.272Z,70.00
2023-06-29T02:25:21.209Z,69.80
2023-06-29T02:25:53.033Z,69.70
2023-06-29T02:26:27.025Z,70.70
2023-06-29T02:26:58.870Z,69.70
2023-06-29T02:27:30.712Z,70.80
2023-06-29T02:28:02.586Z,70.00
2023-06-29T02:28:34.361Z,70.60
2023-06-29T02:29:06.272Z,69.90
2023-06-29T02:29:38.136Z,70.60
2023-06-29T02:30:10.527Z,70.80
2023-06-29T02:30:42.479Z,69.80
2023-06-29T02:31:14.603Z,70.70
2023-06-29T02:31:46.706Z,70.40
2023-06-29T02:32:18.686Z,70.70
2023-06-29T02:32:51.346Z,70.40
2023-06-29T02:33:23.645Z,71.40
2023-06-29T02:33:55.466Z,69.70
2023-06-29T02:34:27.397Z,70.50
2023-06-29T02:34:59.554Z,69.50
2023-06-29T02:35:31.547Z,70.30
2023-06-29T02:36:03.526Z,70.50
2023-06-29T02:36:35.348Z,70.40
2023-06-29T02:37:07.202Z,69.60
2023-06-29T02:37:39.016Z,70.40
2023-06-29T02:38:11.147Z,69.50
2023-06-29T02:38:44.353Z,69.50
2023-06-29T02:39:16.213Z,70.30
2023-06-29T02:39:48.117Z,70.20
2023-06-29T02:40:20.238Z,70.40
2023-06-29T02:40:52.087Z,70.20
2023-06-29T02:41:23.934Z,70.40
2023-06-29T02:41:55.748Z,69.60
2023-06-29T02:42:28.397Z,69.50
2023-06-29T02:43:00.269Z,70.40
2023-06-29T02:43:32.148Z,69.60
2023-06-29T02:44:04.028Z,70.20
2023-06-29T02:44:35.888Z,70.20
2023-06-29T02:45:08.143Z,70.10
2023-06-29T02:45:40.180Z,70.10
2023-06-29T02:46:12.125Z,70.20
2023-06-29T02:46:44.485Z,69.50
2023-06-29T02:47:17.360Z,70.20
2023-06-29T02:47:49.220Z,70.40
2023-06-29T02:48:21.129Z,70.20
2023-06-29T02:48:53.074Z,69.40
2023-06-29T02:49:24.919Z,69.40
2023-06-29T02:49:56.735Z,70.20
2023-06-29T02:50:28.698Z,70.30
2023-06-29T02:51:00.758Z,70.40
2023-06-29T02:51:32.968Z,69.60
2023-06-29T02:52:09.399Z,70.30
2023-06-29T02:52:41.272Z,70.70
2023-06-29T02:53:15.692Z,70.40
2023-06-29T02:53:47.492Z,70.40
2023-06-29T02:54:19.745Z,69.40
2023-06-29T02:54:53.859Z,69.80
2023-06-29T02:55:26.354Z,70.40
2023-06-29T02:55:58.141Z,70.40
2023-06-29T02:56:30.000Z,69.70
2023-06-29T02:57:01.771Z,70.50
2023-06-29T02:57:33.594Z,69.60
2023-06-29T02:58:05.485Z,70.40
2023-06-29T02:58:37.278Z,69.40
2023-06-29T02:59:12.829Z,70.50
2023-06-29T03:02:28.702Z,70.10
2023-06-29T03:03:44.619Z,69.80
2023-06-29T03:04:16.542Z,73.80
2023-06-29T03:04:48.438Z,74.00
2023-06-29T03:05:20.294Z,74.70
2023-06-29T03:05:52.121Z,75.30
2023-06-29T03:06:24.106Z,75.60
2023-06-29T03:06:56.002Z,75.50
2023-06-29T03:07:28.050Z,77.10
2023-06-29T03:08:00.028Z,76.70
2023-06-29T03:08:31.859Z,78.30
2023-06-29T03:09:36.180Z,75.50
2023-06-29T03:10:08.598Z,80.90
2023-06-29T03:10:40.438Z,81.90
2023-06-29T03:11:12.329Z,79.20
2023-06-29T03:11:44.182Z,78.60
2023-06-29T03:12:16.020Z,82.40
2023-06-29T03:12:48.298Z,79.60
2023-06-29T03:13:20.154Z,79.70
2023-06-29T03:13:52.255Z,80.20
2023-06-29T03:14:24.176Z,80.30
2023-06-29T03:14:55.996Z,82.60
2023-06-29T03:16:02.156Z,82.90
2023-06-29T03:16:34.078Z,83.20
2023-06-29T03:17:06.665Z,83.10
2023-06-29T03:17:38.977Z,83.90
2023-06-29T03:18:10.922Z,84.40
2023-06-29T03:20:19.841Z,87.00
2023-06-29T03:20:51.713Z,85.90
2023-06-29T03:21:23.584Z,86.10
2023-06-29T03:22:27.951Z,86.00
2023-06-29T03:22:59.850Z,85.70
2023-06-29T03:23:31.626Z,85.50
2023-06-29T03:24:35.796Z,84.30
2023-06-29T03:26:13.846Z,85.00
2023-06-29T03:26:45.620Z,85.60
2023-06-29T03:27:17.506Z,85.40
2023-06-29T03:28:21.678Z,84.80
2023-06-29T03:28:53.503Z,84.50
2023-06-29T03:29:25.932Z,84.10
2023-06-29T03:29:57.830Z,85.20
2023-06-29T04:04:05.559Z,84.10
2023-06-29T04:22:56.761Z,88.00
2023-06-29T07:15:00.583Z,87.70
2023-06-29T07:15:33.735Z,87.60
2023-06-29T07:17:11.408Z,86.60
2023-06-29T07:17:43.631Z,86.70
2023-06-29T07:18:15.521Z,86.70
2023-06-29T07:21:28.085Z,86.30
2023-06-29T07:24:58.329Z,85.30
2023-06-29T07:25:30.145Z,84.40
2023-06-29T07:26:34.372Z,79.70
2023-06-29T07:27:43.244Z,78.70
2023-06-29T07:28:15.136Z,79.50
2023-06-29T07:29:19.416Z,78.40
2023-06-29T07:29:51.228Z,83.10
2023-06-29T07:30:23.114Z,83.50
2023-06-29T07:30:55.035Z,83.90
2023-06-29T07:31:28.747Z,83.50
2023-06-29T07:32:00.615Z,83.80
2023-06-29T07:32:32.462Z,83.80
2023-06-29T07:33:37.057Z,80.20
2023-06-29T07:34:08.980Z,84.40
2023-06-29T07:34:40.818Z,84.40
2023-06-29T07:35:46.164Z,80.00
2023-06-29T07:36:18.259Z,84.90
2023-06-29T07:38:59.798Z,80.60
2023-06-29T07:39:31.999Z,84.70
2023-06-29T07:40:05.475Z,84.90
2023-06-29T07:40:37.495Z,85.40
2023-06-29T07:41:09.980Z,85.00
2023-06-29T07:42:16.832Z,85.00
2023-06-29T07:42:55.394Z,85.20
2023-06-29T07:43:27.197Z,85.30
2023-06-29T07:44:00.956Z,85.30
2023-06-29T07:44:32.801Z,85.40
2023-06-29T07:45:05.447Z,85.70
2023-06-29T07:45:37.237Z,85.40
2023-06-29T07:46:10.897Z,85.40
2023-06-29T07:46:42.827Z,85.50
2023-06-29T07:47:46.934Z,85.30
2023-06-29T07:48:18.985Z,85.30
2023-06-29T07:49:24.486Z,85.70
2023-06-29T07:49:56.285Z,85.90
2023-06-29T07:50:28.098Z,85.90
2023-06-29T07:51:34.323Z,85.30
2023-06-29T07:52:06.526Z,84.60
2023-06-29T07:52:39.302Z,84.60
2023-06-29T07:53:43.389Z,84.40
2023-06-29T07:54:15.295Z,84.80
2023-06-29T07:54:47.137Z,85.10
2023-06-29T07:55:18.965Z,84.90
2023-06-29T07:55:50.736Z,84.80
2023-06-29T07:56:22.564Z,84.80
2023-06-29T07:58:40.089Z,85.20
2023-06-29T08:00:17.484Z,85.20
2023-06-29T08:00:51.846Z,80.50
2023-06-29T08:01:23.889Z,84.40
2023-06-29T08:02:28.202Z,79.90
2023-06-29T08:03:00.155Z,83.90
2023-06-29T08:04:13.186Z,84.10
2023-06-29T08:07:08.577Z,84.40
2023-06-29T08:08:16.019Z,83.40
2023-06-29T08:08:48.299Z,85.00
2023-06-29T08:09:53.760Z,84.90
2023-06-29T08:10:25.583Z,84.90
2023-06-29T08:11:32.060Z,84.80
2023-06-29T08:12:04.467Z,84.70
2023-06-29T08:12:36.329Z,84.70
2023-06-29T08:13:40.928Z,84.70
2023-06-29T08:14:12.781Z,84.80
2023-06-29T08:14:44.834Z,85.00
2023-06-29T08:15:16.725Z,85.40
2023-06-29T08:16:20.951Z,85.20
2023-06-29T08:16:52.965Z,81.30
2023-06-29T08:17:24.934Z,84.70
2023-06-29T08:18:30.434Z,84.40
2023-06-29T08:19:05.062Z,84.30
2023-06-29T08:19:36.867Z,80.40
2023-06-29T08:20:13.426Z,84.90
2023-06-29T08:21:20.989Z,84.30
2023-06-29T08:21:56.356Z,84.00
2023-06-29T08:22:28.355Z,83.90
2023-06-29T08:24:39.173Z,84.00
2023-06-29T08:25:43.258Z,84.60
2023-06-29T08:26:47.485Z,81.50
2023-06-29T08:27:20.757Z,85.00
2023-06-29T08:27:52.583Z,85.10
2023-06-29T08:28:24.335Z,84.80
2023-06-29T08:28:56.119Z,84.10
2023-06-29T08:32:45.093Z,85.00
2023-06-29T08:33:50.620Z,84.90
2023-06-29T08:34:23.163Z,84.70
2023-06-29T08:34:55.265Z,84.70
2023-06-29T08:35:27.114Z,85.10
2023-06-29T08:35:58.925Z,85.10
2023-06-29T08:37:06.008Z,84.70
2023-06-29T08:37:37.847Z,84.60
2023-06-29T08:38:09.753Z,84.20
2023-06-29T08:39:45.964Z,84.30
2023-06-29T08:40:59.692Z,81.00
2023-06-29T08:41:34.613Z,83.60
2023-06-29T08:42:08.412Z,79.60
2023-06-29T08:42:41.184Z,83.80
2023-06-29T08:43:16.034Z,84.10
2023-06-29T08:44:20.327Z,79.70
2023-06-29T08:45:24.349Z,85.60
2023-06-29T08:45:56.158Z,85.30
2023-06-29T08:46:36.970Z,85.70
2023-06-29T08:47:52.379Z,81.70
2023-06-29T08:48:30.246Z,85.20
2023-06-29T08:49:44.014Z,86.00
2023-06-29T08:50:16.059Z,85.40
2023-06-29T08:50:57.399Z,85.30
2023-06-29T08:51:31.804Z,85.20
2023-06-29T08:52:39.302Z,86.40
2023-06-29T08:54:17.010Z,81.10
2023-06-29T08:55:23.767Z,85.70
2023-06-29T08:55:56.442Z,85.50
2023-06-29T08:57:06.983Z,85.30
2023-06-29T08:57:40.019Z,81.30
2023-06-29T08:58:45.665Z,83.10
2023-06-29T09:02:40.967Z,86.10
2023-06-29T09:03:14.409Z,86.10
2023-06-29T09:04:19.881Z,87.10
2023-06-29T09:04:56.935Z,82.50
2023-06-29T09:05:28.880Z,86.50
2023-06-29T09:06:33.875Z,87.70
2023-06-29T09:07:06.209Z,87.40
2023-06-29T09:07:47.246Z,87.10
2023-06-29T09:08:20.360Z,87.00
2023-06-29T09:09:25.458Z,87.80
2023-06-29T09:10:29.905Z,88.50
2023-06-29T09:11:01.752Z,88.60
2023-06-29T09:13:49.862Z,88.00
2023-06-29T09:14:58.175Z,87.60
2023-06-29T09:16:05.861Z,87.80
2023-06-29T09:16:51.875Z,88.00
2023-06-29T09:17:29.412Z,87.80
2023-06-29T09:18:01.906Z,88.20
2023-06-29T09:18:34.278Z,88.10
2023-06-29T09:19:06.742Z,88.20
2023-06-29T09:20:17.965Z,88.70
2023-06-29T09:20:52.085Z,84.70
2023-06-29T09:21:58.478Z,89.00
2023-06-29T09:22:32.373Z,88.60
2023-06-29T09:23:07.379Z,88.40
2023-06-29T09:23:45.067Z,88.10
2023-06-29T09:25:39.289Z,88.80
2023-06-29T09:27:52.618Z,88.20
2023-06-29T09:28:25.233Z,88.20
2023-06-29T09:29:00.982Z,88.60
2023-06-29T09:29:40.030Z,88.80
2023-06-29T09:30:54.298Z,89.10
2023-06-29T09:31:33.722Z,89.10
2023-06-29T09:32:06.091Z,88.80
2023-06-29T09:32:39.501Z,88.80
2023-06-29T09:33:44.673Z,88.60
2023-06-29T09:35:25.074Z,88.60
2023-06-29T09:35:56.864Z,88.60
2023-06-29T09:36:29.634Z,88.80
2023-06-29T09:37:01.650Z,89.00
2023-06-29T09:37:34.581Z,89.10
2023-06-29T09:39:13.386Z,87.30
2023-06-29T09:40:30.623Z,88.70
2023-06-29T09:41:05.911Z,87.80
2023-06-29T09:41:59.651Z,89.00
2023-06-29T09:43:17.222Z,88.80
2023-06-29T09:43:50.239Z,88.60
2023-06-29T09:45:03.341Z,88.60
2023-06-29T09:45:35.104Z,88.70
2023-06-29T09:46:10.771Z,88.30
2023-06-29T09:46:43.055Z,88.60
2023-06-29T09:49:10.838Z,89.00
2023-06-29T09:49:49.902Z,88.90
2023-06-29T09:50:24.260Z,89.10
2023-06-29T09:50:56.466Z,89.10
2023-06-29T09:51:28.588Z,89.40
2023-06-29T09:52:05.343Z,89.10
2023-06-29T09:53:18.528Z,88.90
2023-06-29T09:54:26.484Z,88.70
2023-06-29T09:54:59.523Z,89.10
2023-06-29T09:55:32.042Z,89.00
2023-06-29T09:56:04.577Z,89.20
2023-06-29T09:56:38.730Z,88.90
2023-06-29T09:57:51.253Z,88.90
2023-06-29T09:58:23.146Z,88.90
2023-06-29T09:58:57.498Z,88.90
2023-06-29T09:59:32.783Z,88.90
2023-06-29T10:00:10.667Z,89.10
2023-06-29T10:01:29.870Z,89.40
2023-06-29T10:02:05.187Z,89.40
2023-06-29T10:03:12.460Z,88.90
2023-06-29T10:03:45.042Z,89.10
2023-06-29T10:04:17.016Z,89.10
2023-06-29T10:06:07.338Z,89.50
2023-06-29T10:06:52.490Z,89.30
2023-06-29T10:07:24.773Z,89.40
2023-06-29T10:08:07.246Z,89.00
2023-06-29T10:08:43.271Z,88.60
2023-06-29T10:09:21.832Z,89.10
2023-06-29T10:10:29.660Z,85.00
2023-06-29T10:11:09.405Z,89.70
2023-06-29T10:11:45.473Z,89.40
2023-06-29T10:12:21.026Z,89.30
2023-06-29T10:12:58.290Z,89.10
2023-06-29T10:13:43.111Z,89.30
2023-06-29T10:14:16.777Z,89.20
2023-06-29T10:15:25.258Z,89.10
2023-06-29T10:16:41.063Z,89.30
2023-06-29T10:18:12.976Z,89.30
2023-06-29T10:18:51.147Z,89.20
2023-06-29T10:19:24.488Z,89.10
2023-06-29T10:20:39.230Z,89.40
2023-06-29T10:21:11.533Z,89.20
2023-06-29T10:22:21.352Z,88.90
2023-06-29T10:26:25.936Z,89.40
2023-06-29T10:27:37.158Z,89.50
2023-06-29T10:28:13.975Z,89.40
2023-06-29T10:28:46.210Z,89.30
2023-06-29T10:29:17.969Z,89.30
2023-06-29T10:31:00.695Z,89.60
2023-06-29T10:32:35.007Z,89.70
2023-06-29T10:33:10.417Z,85.60
2023-06-29T10:33:49.161Z,88.40
2023-06-29T10:34:29.432Z,89.70
2023-06-29T10:35:15.160Z,85.40
2023-06-29T10:36:46.933Z,89.80
2023-06-29T10:37:34.582Z,89.60
2023-06-29T10:38:14.815Z,89.80
2023-06-29T10:38:46.711Z,89.50
2023-06-29T10:39:41.245Z,89.40
2023-06-29T10:40:21.569Z,89.70
2023-06-29T10:42:13.298Z,89.40
2023-06-29T10:43:56.901Z,89.20
2023-06-29T10:44:35.533Z,88.90
2023-06-29T10:45:10.136Z,88.90
2023-06-29T10:45:42.663Z,89.00
2023-06-29T10:46:15.496Z,89.20
2023-06-29T10:46:51.135Z,88.60
2023-06-29T10:48:22.666Z,89.00
2023-06-29T10:49:02.942Z,88.90
2023-06-29T10:50:50.903Z,89.10
2023-06-29T10:51:25.654Z,89.30
2023-06-29T10:52:07.506Z,89.20
2023-06-29T10:52:44.344Z,89.20
2023-06-29T10:53:18.867Z,88.90
2023-06-29T10:53:50.806Z,89.00
2023-06-29T10:54:26.199Z,89.20
2023-06-29T10:55:21.939Z,89.10
2023-06-29T10:55:57.361Z,85.20
2023-06-29T10:56:31.311Z,89.50
2023-06-29T10:57:11.461Z,89.40
2023-06-29T10:57:47.822Z,89.40
2023-06-29T10:58:59.625Z,85.20
2023-06-29T10:59:35.624Z,89.10
2023-06-29T11:00:08.821Z,89.20
2023-06-29T11:01:13.673Z,88.90
2023-06-29T11:01:45.822Z,89.00
2023-06-29T11:02:21.597Z,89.20
2023-06-29T11:02:56.301Z,89.20
2023-06-29T11:03:31.627Z,89.10
2023-06-29T11:04:03.934Z,89.30
2023-06-29T11:04:35.874Z,89.30
2023-06-29T11:05:07.992Z,89.10
2023-06-29T11:05:40.246Z,89.40
2023-06-29T11:07:10.305Z,89.30
2023-06-29T11:07:48.412Z,89.70
2023-06-29T11:10:04.554Z,88.90
2023-06-29T11:10:37.149Z,89.00
2023-06-29T11:11:15.487Z,88.80
2023-06-29T11:12:56.189Z,88.80
2023-06-29T11:14:39.532Z,88.70
2023-06-29T11:16:08.211Z,88.60
2023-06-29T11:17:12.989Z,89.10
2023-06-29T11:17:46.462Z,88.90
2023-06-29T11:18:18.805Z,88.70
2023-06-29T11:18:55.292Z,88.70
2023-06-29T11:19:29.107Z,88.80
2023-06-29T11:20:04.638Z,89.10
2023-06-29T11:20:40.835Z,89.00
2023-06-29T11:21:14.722Z,88.90
2023-06-29T11:22:53.814Z,88.50
2023-06-29T11:23:27.797Z,87.70
2023-06-29T11:24:31.971Z,88.60
2023-06-29T11:25:05.384Z,88.70
2023-06-29T11:25:40.039Z,88.40
2023-06-29T11:26:11.965Z,88.20
2023-06-29T11:26:44.635Z,88.00
2023-06-29T11:27:18.110Z,87.90
2023-06-29T11:27:49.970Z,88.20
2023-06-29T11:28:55.011Z,88.00
2023-06-29T11:29:32.368Z,88.20
2023-06-29T11:30:10.986Z,88.30
2023-06-29T11:31:42.048Z,88.00
2023-06-29T11:32:14.158Z,88.30
2023-06-29T11:34:48.224Z,87.90
2023-06-29T11:35:56.515Z,87.90
2023-06-29T11:37:14.655Z,87.90
2023-06-29T11:37:47.656Z,87.60
2023-06-29T11:38:20.004Z,87.70
2023-06-29T11:39:13.946Z,87.70
2023-06-29T11:39:50.156Z,87.80
2023-06-29T11:41:06.124Z,87.80
2023-06-29T11:43:59.269Z,83.70
2023-06-29T11:45:37.310Z,87.60
2023-06-29T11:46:18.648Z,87.60
2023-06-29T11:47:05.526Z,83.50
2023-06-29T11:47:38.431Z,88.00
2023-06-29T11:48:12.264Z,88.10
2023-06-29T11:48:55.474Z,87.80
2023-06-29T11:49:27.510Z,87.60
2023-06-29T11:51:06.304Z,87.40
2023-06-29T11:52:15.803Z,83.50
2023-06-29T11:54:05.162Z,83.70
2023-06-29T11:54:40.421Z,83.90
2023-06-29T11:55:16.789Z,87.80
2023-06-29T11:57:01.728Z,87.70
2023-06-29T11:58:06.554Z,87.70
2023-06-29T11:59:13.375Z,87.80
2023-06-29T11:59:46.360Z,87.60
2023-06-29T12:02:04.852Z,86.90
2023-06-29T12:02:46.047Z,87.00
2023-06-29T12:05:43.338Z,86.70
2023-06-29T12:06:18.641Z,86.90
2023-06-29T12:06:57.629Z,82.70
2023-06-29T12:07:49.197Z,82.90
2023-06-29T12:08:22.506Z,86.80
2023-06-29T12:09:34.641Z,86.50
2023-06-29T12:11:17.219Z,86.70
2023-06-29T12:12:00.222Z,86.70
2023-06-29T12:12:38.097Z,86.80
2023-06-29T12:13:11.098Z,86.80
2023-06-29T12:13:47.155Z,86.70
2023-06-29T12:18:45.733Z,86.30
2023-06-29T12:19:17.747Z,86.30
2023-06-29T12:20:09.089Z,86.00
2023-06-29T12:20:44.757Z,86.30
2023-06-29T12:22:25.989Z,86.40
2023-06-29T12:24:08.940Z,86.30
2023-06-29T12:25:15.810Z,87.20
2023-06-29T12:25:49.750Z,86.90
2023-06-29T12:28:00.652Z,86.00
2023-06-29T12:28:33.753Z,86.00
2023-06-29T12:29:39.847Z,81.40
2023-06-29T12:30:15.964Z,85.70
2023-06-29T12:30:48.177Z,85.90
2023-06-29T12:31:28.558Z,85.70
2023-06-29T12:32:03.657Z,82.00
2023-06-29T12:32:38.396Z,85.90
2023-06-29T12:33:13.037Z,81.50
2023-06-29T12:33:45.126Z,86.00
2023-06-29T12:34:16.895Z,85.90
2023-06-29T12:34:49.452Z,86.20
2023-06-29T12:35:58.028Z,86.40
2023-06-29T12:37:35.855Z,85.80
2023-06-29T12:38:07.736Z,85.90
2023-06-29T12:38:48.300Z,85.80
2023-06-29T12:39:54.094Z,86.20
2023-06-29T12:41:33.293Z,85.80
2023-06-29T12:42:52.938Z,85.80
2023-06-29T12:45:06.376Z,86.10
2023-06-29T12:45:38.351Z,86.10
2023-06-29T12:46:11.958Z,86.30
2023-06-29T12:46:43.789Z,86.40
2023-06-29T12:47:15.605Z,86.50
2023-06-29T12:47:47.754Z,86.70
2023-06-29T12:48:19.566Z,86.20
2023-06-29T12:48:51.400Z,86.00
2023-06-29T12:50:53.044Z,86.10
2023-06-29T12:51:57.557Z,85.60
2023-06-29T12:53:34.203Z,85.30
2023-06-29T12:55:17.615Z,85.80
2023-06-29T12:55:52.737Z,86.10
2023-06-29T12:56:26.360Z,86.10
2023-06-29T12:58:39.585Z,85.90
2023-06-29T12:59:49.882Z,86.10
2023-06-29T13:00:30.525Z,85.90
2023-06-29T13:11:22.825Z,84.50
2023-06-29T13:11:54.728Z,86.40
2023-06-29T13:12:27.691Z,85.90
2023-06-29T13:13:00.555Z,86.00
2023-06-29T13:13:32.521Z,86.10
2023-06-29T13:14:04.372Z,86.50
2023-06-29T13:15:11.525Z,86.10
2023-06-29T13:15:45.989Z,86.20
2023-06-29T13:16:18.238Z,86.00
2023-06-29T13:16:50.136Z,85.80
2023-06-29T13:17:54.614Z,85.30
2023-06-29T13:18:26.633Z,85.50
2023-06-29T13:20:03.794Z,85.50
2023-06-29T13:20:35.620Z,85.00
2023-06-29T13:21:07.392Z,84.80
2023-06-29T13:21:40.861Z,85.10
2023-06-29T13:23:17.723Z,84.90
2023-06-29T13:24:23.350Z,84.70
2023-06-29T13:24:55.266Z,84.80
2023-06-29T13:25:59.246Z,84.70
2023-06-29T13:27:04.742Z,84.70
2023-06-29T13:27:40.414Z,84.70
2023-06-29T13:28:13.004Z,84.80
2023-06-29T13:29:17.278Z,84.50
2023-06-29T13:30:53.526Z,84.40
2023-06-29T13:31:58.937Z,84.60
2023-06-29T13:32:30.740Z,84.60
2023-06-29T13:34:08.671Z,84.30
2023-06-29T13:34:40.613Z,84.50
2023-06-29T13:35:12.387Z,84.50